createdAt,value
2023-04-27T00:00:14.226Z,4.78
2023-04-27T00:01:14.240Z,4.74
2023-04-27T00:02:14.358Z,4.78
2023-04-27T00:03:14.338Z,4.71
2023-04-27T00:04:14.422Z,4.71
2023-04-27T00:05:14.566Z,4.77
2023-04-27T00:06:14.251Z,4.67
2023-04-27T00:07:14.217Z,4.70
2023-04-27T00:08:14.177Z,4.62
2023-04-27T00:09:14.305Z,4.67
2023-04-27T00:10:14.157Z,4.50
2023-04-27T00:11:14.153Z,4.59
2023-04-27T00:12:14.162Z,4.60
2023-04-27T00:13:14.134Z,4.63
2023-04-27T00:14:14.138Z,4.71
2023-04-27T00:15:14.116Z,4.70
2023-04-27T00:16:14.149Z,4.66
2023-04-27T00:17:14.131Z,4.68
2023-04-27T00:18:14.101Z,4.68
2023-04-27T00:19:14.273Z,4.60
2023-04-27T00:20:14.088Z,4.53
2023-04-27T00:21:14.074Z,4.58
2023-04-27T00:22:14.087Z,4.55
2023-04-27T00:23:14.057Z,4.62
2023-04-27T00:24:14.049Z,4.67
2023-04-27T00:25:14.063Z,4.66
2023-04-27T00:26:14.041Z,4.71
2023-04-27T00:27:14.088Z,4.67
2023-04-27T00:28:14.033Z,4.62
2023-04-27T00:29:14.286Z,4.62
2023-04-27T00:30:14.013Z,4.66
2023-04-27T00:31:14.011Z,4.45
2023-04-27T00:32:14.090Z,4.55
2023-04-27T00:33:13.988Z,4.53
2023-04-27T00:34:13.977Z,4.44
2023-04-27T00:35:13.982Z,4.55
2023-04-27T00:36:13.967Z,4.58
2023-04-27T00:37:13.991Z,4.53
2023-04-27T00:38:13.949Z,4.55
2023-04-27T00:39:14.230Z,4.53
2023-04-27T00:40:13.947Z,4.62
2023-04-27T00:41:13.929Z,4.53
2023-04-27T00:42:13.945Z,4.58
2023-04-27T00:43:13.920Z,4.66
2023-04-27T00:44:13.915Z,4.60
2023-04-27T00:45:13.921Z,4.71
2023-04-27T00:46:13.945Z,4.58
2023-04-27T00:47:14.912Z,4.53
2023-04-27T00:48:13.901Z,4.53
2023-04-27T00:49:14.099Z,4.50
2023-04-27T00:50:13.861Z,4.60
2023-04-27T00:51:13.894Z,4.53
2023-04-27T00:52:13.909Z,4.58
2023-04-27T00:53:13.834Z,4.53
2023-04-27T00:54:13.830Z,4.53
2023-04-27T00:55:13.813Z,4.52
2023-04-27T00:56:13.808Z,4.49
2023-04-27T00:57:13.829Z,4.60
2023-04-27T00:58:13.812Z,4.60
2023-04-27T00:59:13.989Z,4.55
2023-04-27T01:00:13.784Z,4.50
2023-04-27T01:01:13.814Z,4.52
2023-04-27T01:02:13.993Z,4.49
2023-04-27T01:03:14.847Z,4.53
2023-04-27T01:04:13.938Z,4.48
2023-04-27T01:05:13.759Z,4.41
2023-04-27T01:06:13.743Z,4.44
2023-04-27T01:07:13.763Z,4.32
2023-04-27T01:08:13.732Z,4.37
2023-04-27T01:09:14.073Z,4.37
2023-04-27T01:10:13.709Z,4.35
2023-04-27T01:11:13.694Z,4.24
2023-04-27T01:12:13.701Z,4.41
2023-04-27T01:13:13.709Z,4.31
2023-04-27T01:14:13.673Z,4.45
2023-04-27T01:15:13.679Z,4.45
2023-04-27T01:16:13.772Z,4.50
2023-04-27T01:17:13.690Z,4.50
2023-04-27T01:18:13.654Z,4.45
2023-04-27T01:19:13.831Z,4.41
2023-04-27T01:20:13.662Z,4.41
2023-04-27T01:21:13.628Z,4.44
2023-04-27T01:22:13.915Z,4.45
2023-04-27T01:23:16.138Z,4.34
2023-04-27T01:24:13.603Z,4.49
2023-04-27T01:25:13.616Z,4.44
2023-04-27T01:26:13.586Z,4.52
2023-04-27T01:27:13.605Z,4.50
2023-04-27T01:28:13.571Z,4.68
2023-04-27T01:29:13.843Z,4.63
2023-04-27T01:30:13.594Z,4.67
2023-04-27T01:31:13.567Z,4.59
2023-04-27T01:32:13.630Z,4.62
2023-04-27T01:33:13.538Z,4.67
2023-04-27T01:34:13.583Z,4.68
2023-04-27T01:35:13.528Z,4.74
2023-04-27T01:36:13.664Z,4.70
2023-04-27T01:37:13.686Z,4.68
2023-04-27T01:38:13.499Z,4.68
2023-04-27T01:39:14.775Z,4.73
2023-04-27T01:40:13.530Z,4.66
2023-04-27T01:41:13.494Z,4.68
2023-04-27T01:42:13.522Z,4.67
2023-04-27T01:43:13.457Z,4.67
2023-04-27T01:44:13.471Z,4.67
2023-04-27T01:45:13.445Z,4.67
2023-04-27T01:46:13.519Z,4.67
2023-04-27T01:47:13.470Z,4.62
2023-04-27T01:48:13.433Z,4.56
2023-04-27T01:49:13.574Z,4.60
2023-04-27T01:50:13.417Z,4.67
2023-04-27T01:51:13.407Z,4.56
2023-04-27T01:52:13.428Z,4.68
2023-04-27T01:53:13.388Z,4.62
2023-04-27T01:54:13.378Z,4.63
2023-04-27T01:55:13.371Z,4.50
2023-04-27T01:56:13.370Z,4.63
2023-04-27T01:57:13.383Z,4.58
2023-04-27T01:58:13.480Z,4.70
2023-04-27T01:59:13.557Z,4.60
2023-04-27T02:00:13.339Z,4.63
2023-04-27T02:01:13.354Z,4.68
2023-04-27T02:02:13.357Z,4.75
2023-04-27T02:03:13.441Z,4.80
2023-04-27T02:04:13.502Z,4.82
2023-04-27T02:05:13.307Z,4.80
2023-04-27T02:06:13.302Z,4.77
2023-04-27T02:07:13.311Z,4.87
2023-04-27T02:08:13.278Z,4.89
2023-04-27T02:09:13.387Z,4.82
2023-04-27T02:10:13.258Z,4.80
2023-04-27T02:11:13.245Z,4.80
2023-04-27T02:12:13.277Z,4.77
2023-04-27T02:13:13.238Z,4.87
2023-04-27T02:14:13.224Z,4.78
2023-04-27T02:15:13.248Z,4.74
2023-04-27T02:16:13.268Z,4.80
2023-04-27T02:17:13.225Z,4.82
2023-04-27T02:18:13.207Z,4.80
2023-04-27T02:19:13.458Z,4.78
2023-04-27T02:20:13.198Z,4.78
2023-04-27T02:21:13.170Z,4.82
2023-04-27T02:22:13.187Z,4.90
2023-04-27T02:23:13.164Z,4.78
2023-04-27T02:24:13.151Z,4.75
2023-04-27T02:25:13.169Z,4.75
2023-04-27T02:26:13.139Z,4.71
2023-04-27T02:27:13.160Z,4.68
2023-04-27T02:28:13.128Z,4.71
2023-04-27T02:29:13.394Z,4.73
2023-04-27T02:30:13.115Z,4.73
2023-04-27T02:31:13.140Z,4.70
2023-04-27T02:32:13.112Z,4.55
2023-04-27T02:33:13.092Z,4.67
2023-04-27T02:34:13.075Z,4.62
2023-04-27T02:35:13.074Z,4.58
2023-04-27T02:36:13.062Z,4.75
2023-04-27T02:37:13.078Z,4.66
2023-04-27T02:38:13.041Z,4.84
2023-04-27T02:39:13.294Z,4.70
2023-04-27T02:40:13.031Z,4.82
2023-04-27T02:41:13.029Z,4.74
2023-04-27T02:42:13.053Z,4.78
2023-04-27T02:43:13.032Z,4.71
2023-04-27T02:44:13.041Z,4.73
2023-04-27T02:45:12.992Z,4.87
2023-04-27T02:46:13.018Z,4.67
2023-04-27T02:47:12.999Z,4.66
2023-04-27T02:48:13.006Z,4.68
2023-04-27T02:49:13.095Z,4.70
2023-04-27T02:50:12.954Z,4.67
2023-04-27T02:51:12.946Z,4.67
2023-04-27T02:52:12.935Z,4.71
2023-04-27T02:53:13.959Z,4.68
2023-04-27T02:54:12.932Z,4.70
2023-04-27T02:55:12.917Z,4.62
2023-04-27T02:56:12.912Z,4.63
2023-04-27T02:57:12.899Z,4.71
2023-04-27T02:58:12.918Z,4.71
2023-04-27T02:59:13.029Z,4.75
2023-04-27T03:00:12.878Z,4.62
2023-04-27T03:01:12.957Z,4.78
2023-04-27T03:02:12.858Z,4.74
2023-04-27T03:03:13.021Z,4.74
2023-04-27T03:04:12.954Z,4.77
2023-04-27T03:05:12.865Z,4.71
2023-04-27T03:06:12.831Z,4.78
2023-04-27T03:07:12.845Z,4.68
2023-04-27T03:08:12.848Z,4.62
2023-04-27T03:09:13.028Z,4.66
2023-04-27T03:10:12.800Z,4.62
2023-04-27T03:11:12.797Z,4.62
2023-04-27T03:12:12.790Z,4.63
2023-04-27T03:13:12.800Z,4.53
2023-04-27T03:14:12.784Z,4.66
2023-04-27T03:15:12.764Z,4.56
2023-04-27T03:16:12.790Z,4.67
2023-04-27T03:17:12.748Z,4.70
2023-04-27T03:18:12.771Z,4.62
2023-04-27T03:19:12.901Z,4.62
2023-04-27T03:20:12.772Z,4.71
2023-04-27T03:21:12.731Z,4.73
2023-04-27T03:22:12.729Z,4.63
2023-04-27T03:23:12.744Z,4.68
2023-04-27T03:24:12.697Z,4.66
2023-04-27T03:25:12.695Z,4.58
2023-04-27T03:26:12.682Z,4.62
2023-04-27T03:27:12.675Z,4.53
2023-04-27T03:28:12.736Z,4.59
2023-04-27T03:29:12.815Z,4.50
2023-04-27T03:30:12.685Z,4.60
2023-04-27T03:31:12.649Z,4.56
2023-04-27T03:32:12.709Z,4.63
2023-04-27T03:33:12.742Z,4.58
2023-04-27T03:34:12.619Z,4.60
2023-04-27T03:35:12.622Z,4.60
2023-04-27T03:36:12.617Z,4.58
2023-04-27T03:37:12.599Z,4.63
2023-04-27T03:38:12.624Z,4.56
2023-04-27T03:39:12.758Z,4.68
2023-04-27T03:40:12.592Z,4.68
2023-04-27T03:41:12.580Z,4.63
2023-04-27T03:42:12.563Z,4.63
2023-04-27T03:43:12.625Z,4.68
2023-04-27T03:44:12.643Z,4.62
2023-04-27T03:45:12.611Z,4.63
2023-04-27T03:46:12.593Z,4.60
2023-04-27T03:47:12.523Z,4.58
2023-04-27T03:48:12.539Z,4.55
2023-04-27T03:49:12.667Z,4.56
2023-04-27T03:50:12.505Z,4.52
2023-04-27T03:51:12.517Z,4.59
2023-04-27T03:52:12.481Z,4.59
2023-04-27T03:53:12.503Z,4.55
2023-04-27T03:54:12.468Z,4.53
2023-04-27T03:55:12.485Z,4.49
2023-04-27T03:56:12.454Z,4.50
2023-04-27T03:57:12.501Z,4.49
2023-04-27T03:58:12.722Z,4.53
2023-04-27T03:59:12.642Z,4.55
2023-04-27T04:00:12.448Z,4.58
2023-04-27T04:01:12.425Z,4.67
2023-04-27T04:02:12.431Z,4.60
2023-04-27T04:03:12.600Z,4.70
2023-04-27T04:04:12.548Z,4.71
2023-04-27T04:05:12.515Z,4.60
2023-04-27T04:06:12.391Z,4.55
2023-04-27T04:07:12.373Z,4.52
2023-04-27T04:08:12.396Z,4.31
2023-04-27T04:09:12.507Z,4.30
2023-04-27T04:10:12.362Z,4.40
2023-04-27T04:11:12.350Z,4.32
2023-04-27T04:12:12.338Z,4.30
2023-04-27T04:13:12.354Z,4.31
2023-04-27T04:14:12.324Z,4.28
2023-04-27T04:15:12.340Z,4.32
2023-04-27T04:16:12.386Z,4.30
2023-04-27T04:17:12.327Z,4.40
2023-04-27T04:18:12.316Z,4.35
2023-04-27T04:19:12.417Z,4.38
2023-04-27T04:20:12.279Z,4.40
2023-04-27T04:21:12.292Z,4.38
2023-04-27T04:22:12.273Z,4.32
2023-04-27T04:23:12.687Z,4.19
2023-04-27T04:24:12.249Z,4.23
2023-04-27T04:25:12.276Z,4.19
2023-04-27T04:26:12.259Z,4.22
2023-04-27T04:27:12.250Z,4.16
2023-04-27T04:28:12.263Z,4.31
2023-04-27T04:29:12.372Z,4.40
2023-04-27T04:30:12.259Z,4.37
2023-04-27T04:31:12.217Z,4.40
2023-04-27T04:32:12.182Z,4.42
2023-04-27T04:33:12.209Z,4.50
2023-04-27T04:34:12.188Z,4.44
2023-04-27T04:35:12.173Z,4.37
2023-04-27T04:36:12.155Z,4.41
2023-04-27T04:37:12.160Z,4.52
2023-04-27T04:38:12.173Z,4.48
2023-04-27T04:39:12.346Z,4.55
2023-04-27T04:40:12.153Z,4.58
2023-04-27T04:41:12.121Z,4.55
2023-04-27T04:42:12.107Z,4.50
2023-04-27T04:43:12.127Z,4.53
2023-04-27T04:44:12.108Z,4.55
2023-04-27T04:45:12.082Z,4.56
2023-04-27T04:46:12.084Z,4.52
2023-04-27T04:47:12.070Z,4.50
2023-04-27T04:48:12.114Z,4.59
2023-04-27T04:49:12.246Z,4.50
2023-04-27T04:50:12.053Z,4.49
2023-04-27T04:51:12.068Z,4.48
2023-04-27T04:52:12.066Z,4.45
2023-04-27T04:53:12.113Z,4.40
2023-04-27T04:54:12.051Z,4.45
2023-04-27T04:55:12.028Z,4.44
2023-04-27T04:56:12.039Z,4.48
2023-04-27T04:57:12.023Z,4.62
2023-04-27T04:58:12.066Z,4.62
2023-04-27T04:59:12.141Z,4.60
2023-04-27T05:00:12.011Z,4.68
2023-04-27T05:01:12.028Z,4.60
2023-04-27T05:02:12.036Z,4.70
2023-04-27T05:03:12.272Z,4.67
2023-04-27T05:04:12.234Z,4.71
2023-04-27T05:05:11.937Z,4.68
2023-04-27T05:06:11.929Z,4.67
2023-04-27T05:07:14.588Z,4.71
2023-04-27T05:08:12.938Z,4.62
2023-04-27T05:09:12.005Z,4.63
2023-04-27T05:10:11.906Z,4.67
2023-04-27T05:11:11.909Z,4.70
2023-04-27T05:12:11.882Z,4.77
2023-04-27T05:13:11.906Z,4.68
2023-04-27T05:14:11.889Z,4.73
2023-04-27T05:15:11.865Z,4.70
2023-04-27T05:16:11.927Z,4.67
2023-04-27T05:17:11.892Z,4.68
2023-04-27T05:18:11.841Z,4.71
2023-04-27T05:19:12.044Z,4.77
2023-04-27T05:20:11.938Z,4.78
2023-04-27T05:21:11.813Z,4.82
2023-04-27T05:22:11.911Z,4.86
2023-04-27T05:23:11.816Z,4.96
2023-04-27T05:24:11.865Z,4.96
2023-04-27T05:25:11.798Z,5.05
2023-04-27T05:26:11.794Z,5.21
2023-04-27T05:27:45.834Z,5.07
2023-04-27T05:28:11.804Z,5.05
2023-04-27T05:29:11.966Z,5.21
2023-04-27T05:30:11.759Z,5.18
2023-04-27T05:31:11.802Z,5.32
2023-04-27T05:32:11.735Z,5.38
2023-04-27T05:33:11.829Z,5.26
2023-04-27T05:34:11.711Z,5.21
2023-04-27T05:35:12.731Z,5.23
2023-04-27T05:36:11.712Z,5.28
2023-04-27T05:37:11.711Z,5.56
2023-04-27T05:38:11.727Z,5.53
2023-04-27T05:39:11.842Z,5.41
2023-04-27T05:40:11.680Z,5.68
2023-04-27T05:41:11.732Z,5.89
2023-04-27T05:42:11.666Z,5.91
2023-04-27T05:43:11.679Z,6.19
2023-04-27T05:44:11.646Z,6.41
2023-04-27T05:45:11.658Z,6.31
2023-04-27T05:46:11.707Z,6.27
2023-04-27T05:47:11.635Z,6.26
2023-04-27T05:48:11.670Z,6.31
2023-04-27T05:49:11.758Z,6.02
2023-04-27T05:50:11.616Z,5.91
2023-04-27T05:51:11.646Z,5.86
2023-04-27T05:52:11.607Z,5.84
2023-04-27T05:53:11.605Z,5.69
2023-04-27T05:54:11.620Z,5.56
2023-04-27T05:55:11.570Z,5.48
2023-04-27T05:56:11.571Z,5.44
2023-04-27T05:57:11.557Z,5.51
2023-04-27T05:58:11.544Z,5.59
2023-04-27T05:59:11.785Z,5.51
2023-04-27T06:00:11.547Z,5.61
2023-04-27T06:01:11.530Z,5.61
2023-04-27T06:02:11.553Z,5.56
2023-04-27T06:03:11.725Z,5.59
2023-04-27T06:04:12.436Z,5.84
2023-04-27T06:05:11.529Z,5.64
2023-04-27T06:06:11.501Z,5.54
2023-04-27T06:07:11.516Z,5.38
2023-04-27T06:08:11.475Z,5.30
2023-04-27T06:09:11.690Z,5.20
2023-04-27T06:10:11.471Z,5.33
2023-04-27T06:11:11.456Z,5.43
2023-04-27T06:12:11.446Z,5.35
2023-04-27T06:13:11.435Z,5.47
2023-04-27T06:14:11.515Z,5.69
2023-04-27T06:15:11.457Z,5.97
2023-04-27T06:16:11.493Z,6.12
2023-04-27T06:17:11.409Z,6.35
2023-04-27T06:18:11.469Z,6.39
2023-04-27T06:19:11.534Z,6.11
2023-04-27T06:20:11.417Z,6.04
2023-04-27T06:21:11.380Z,6.20
2023-04-27T06:22:11.368Z,6.08
2023-04-27T06:23:11.373Z,5.98
2023-04-27T06:24:11.377Z,5.87
2023-04-27T06:25:11.352Z,5.91
2023-04-27T06:26:11.536Z,6.17
2023-04-27T06:27:11.349Z,6.64
2023-04-27T06:28:11.335Z,6.62
2023-04-27T06:29:11.529Z,7.03
2023-04-27T06:30:11.300Z,7.40
2023-04-27T06:31:11.332Z,7.47
2023-04-27T06:32:11.344Z,6.87
2023-04-27T06:33:11.319Z,6.77
2023-04-27T06:34:11.307Z,6.84
2023-04-27T06:35:11.268Z,6.96
2023-04-27T06:36:11.258Z,6.85
2023-04-27T06:37:11.278Z,6.92
2023-04-27T06:38:11.238Z,6.85
2023-04-27T06:39:11.346Z,6.88
2023-04-27T06:40:11.224Z,6.88
2023-04-27T06:41:11.226Z,7.03
2023-04-27T06:42:11.211Z,6.78
2023-04-27T06:43:11.226Z,6.67
2023-04-27T06:44:11.216Z,6.74
2023-04-27T06:45:12.188Z,6.81
2023-04-27T06:46:11.215Z,6.70
2023-04-27T06:47:11.207Z,6.93
2023-04-27T06:48:11.177Z,6.99
2023-04-27T06:49:12.019Z,7.11
2023-04-27T06:50:11.156Z,7.06
2023-04-27T06:51:11.154Z,7.11
2023-04-27T06:52:11.132Z,6.97
2023-04-27T06:53:11.130Z,6.78
2023-04-27T06:54:11.136Z,6.75
2023-04-27T06:55:11.134Z,6.84
2023-04-27T06:56:11.112Z,6.97
2023-04-27T06:57:11.097Z,7.15
2023-04-27T06:58:11.097Z,7.15
2023-04-27T06:59:11.230Z,7.11
2023-04-27T07:00:11.078Z,6.95
2023-04-27T07:01:11.158Z,6.85
2023-04-27T07:02:11.075Z,7.25
2023-04-27T07:03:11.281Z,7.53
2023-04-27T07:04:11.246Z,7.33
2023-04-27T07:05:11.034Z,7.18
2023-04-27T07:06:11.027Z,6.97
2023-04-27T07:07:11.043Z,7.07
2023-04-27T07:08:11.014Z,7.45
2023-04-27T07:09:20.465Z,7.33
2023-04-27T07:10:12.994Z,7.23
2023-04-27T07:11:10.993Z,7.15
2023-04-27T07:12:10.974Z,7.31
2023-04-27T07:13:11.817Z,7.05
2023-04-27T07:14:10.999Z,7.14
2023-04-27T07:15:10.965Z,7.29
2023-04-27T07:16:10.992Z,7.32
2023-04-27T07:17:10.942Z,7.25
2023-04-27T07:18:10.975Z,7.24
2023-04-27T07:19:12.263Z,7.15
2023-04-27T07:20:10.921Z,7.14
2023-04-27T07:21:10.909Z,7.23
2023-04-27T07:22:10.952Z,7.32
2023-04-27T07:23:10.904Z,7.48
2023-04-27T07:24:10.920Z,7.61
2023-04-27T07:25:10.875Z,7.61
2023-04-27T07:26:10.875Z,7.35
2023-04-27T07:27:10.861Z,7.38
2023-04-27T07:28:10.887Z,7.76
2023-04-27T07:29:25.766Z,7.93
2023-04-27T07:30:12.844Z,8.12
2023-04-27T07:31:10.899Z,8.42
2023-04-27T07:32:10.860Z,8.34
2023-04-27T07:33:10.872Z,8.00
2023-04-27T07:34:10.818Z,8.13
2023-04-27T07:35:10.821Z,8.24
2023-04-27T07:36:10.798Z,8.38
2023-04-27T07:37:10.791Z,8.58
2023-04-27T07:38:10.797Z,8.64
2023-04-27T07:39:10.814Z,8.67
2023-04-27T07:40:10.757Z,8.27
2023-04-27T07:41:10.759Z,7.97
2023-04-27T07:42:10.760Z,7.98
2023-04-27T07:43:10.761Z,7.88
2023-04-27T07:44:10.739Z,8.00
2023-04-27T07:45:10.781Z,8.08
2023-04-27T07:46:10.766Z,8.27
2023-04-27T07:47:10.760Z,8.12
2023-04-27T07:48:10.767Z,8.28
2023-04-27T07:49:10.750Z,8.61
2023-04-27T07:50:10.697Z,8.63
2023-04-27T07:51:10.680Z,8.85
2023-04-27T07:52:10.683Z,9.08
2023-04-27T07:53:10.701Z,8.66
2023-04-27T07:54:10.663Z,8.58
2023-04-27T07:55:10.649Z,8.61
2023-04-27T07:56:10.654Z,8.36
2023-04-27T07:57:10.631Z,8.71
2023-04-27T07:58:10.650Z,8.92
2023-04-27T07:59:10.812Z,8.89
2023-04-27T08:00:10.608Z,9.11
2023-04-27T08:01:10.608Z,9.19
2023-04-27T08:02:19.760Z,9.11
2023-04-27T08:03:12.986Z,9.03
2023-04-27T08:04:10.744Z,8.82
2023-04-27T08:05:10.769Z,8.88
2023-04-27T08:06:10.936Z,8.91
2023-04-27T08:07:10.819Z,8.73
2023-04-27T08:08:10.568Z,8.66
2023-04-27T08:09:10.578Z,8.76
2023-04-27T08:10:10.553Z,8.78
2023-04-27T08:11:10.531Z,9.03
2023-04-27T08:12:10.518Z,9.25
2023-04-27T08:13:10.524Z,9.25
2023-04-27T08:14:10.554Z,9.37
2023-04-27T08:15:10.504Z,9.48
2023-04-27T08:16:10.516Z,9.39
2023-04-27T08:17:10.487Z,9.43
2023-04-27T08:18:10.592Z,9.18
2023-04-27T08:19:10.546Z,9.72
2023-04-27T08:20:10.456Z,10.01
2023-04-27T08:21:10.444Z,9.51
2023-04-27T08:22:10.446Z,9.21
2023-04-27T08:23:10.441Z,9.13
2023-04-27T08:24:10.449Z,9.48
2023-04-27T08:25:10.428Z,9.91
2023-04-27T08:26:10.428Z,9.98
2023-04-27T08:27:10.450Z,9.62
2023-04-27T08:28:11.399Z,9.37
2023-04-27T08:29:19.887Z,9.72
2023-04-27T08:30:12.458Z,9.94
2023-04-27T08:31:10.413Z,9.95
2023-04-27T08:32:10.363Z,9.69
2023-04-27T08:33:10.369Z,9.66
2023-04-27T08:34:10.377Z,9.44
2023-04-27T08:35:10.346Z,9.51
2023-04-27T08:36:10.364Z,9.77
2023-04-27T08:37:10.334Z,9.87
2023-04-27T08:38:10.317Z,9.84
2023-04-27T08:39:10.336Z,9.87
2023-04-27T08:40:10.319Z,9.91
2023-04-27T08:41:20.877Z,9.83
2023-04-27T08:42:12.304Z,9.69
2023-04-27T08:43:10.293Z,9.77
2023-04-27T08:44:10.337Z,10.09
2023-04-27T08:45:10.267Z,9.86
2023-04-27T08:46:10.259Z,9.69
2023-04-27T08:47:10.267Z,9.64
2023-04-27T08:48:10.352Z,9.73
2023-04-27T08:49:10.267Z,9.62
2023-04-27T08:50:10.229Z,9.62
2023-04-27T08:51:10.221Z,9.83
2023-04-27T08:52:10.224Z,10.02
2023-04-27T08:53:10.202Z,10.71
2023-04-27T08:54:10.225Z,10.97
2023-04-27T08:55:10.198Z,11.27
2023-04-27T08:56:10.180Z,11.32
2023-04-27T08:57:10.174Z,11.05
2023-04-27T08:58:10.167Z,10.31
2023-04-27T08:59:10.185Z,10.04
2023-04-27T09:00:10.148Z,9.61
2023-04-27T09:01:10.153Z,9.61
2023-04-27T09:02:10.194Z,9.72
2023-04-27T09:03:10.276Z,9.74
2023-04-27T09:04:10.407Z,9.97
2023-04-27T09:05:10.224Z,10.37
2023-04-27T09:06:10.159Z,10.20
2023-04-27T09:07:10.099Z,10.56
2023-04-27T09:08:10.100Z,10.96
2023-04-27T09:09:10.102Z,11.11
2023-04-27T09:10:11.102Z,10.89
2023-04-27T09:11:10.075Z,11.11
2023-04-27T09:12:10.084Z,11.50
2023-04-27T09:13:10.075Z,11.80
2023-04-27T09:14:10.070Z,10.64
2023-04-27T09:15:10.047Z,10.56
2023-04-27T09:16:10.127Z,10.79
2023-04-27T09:17:10.031Z,11.32
2023-04-27T09:18:10.018Z,11.65
2023-04-27T09:19:10.048Z,11.18
2023-04-27T09:20:10.011Z,10.93
2023-04-27T09:21:09.998Z,10.96
2023-04-27T09:22:10.007Z,11.11
2023-04-27T09:23:09.990Z,11.25
2023-04-27T09:24:10.015Z,11.10
2023-04-27T09:25:09.965Z,11.18
2023-04-27T09:26:10.011Z,11.30
2023-04-27T09:27:09.948Z,11.72
2023-04-27T09:28:09.941Z,12.04
2023-04-27T09:29:09.992Z,12.20
2023-04-27T09:30:09.936Z,12.06
2023-04-27T09:31:09.973Z,11.51
2023-04-27T09:32:10.909Z,11.11
2023-04-27T09:33:09.903Z,10.46
2023-04-27T09:34:09.928Z,10.74
2023-04-27T09:35:09.883Z,10.96
2023-04-27T09:36:09.889Z,11.15
2023-04-27T09:37:09.879Z,11.44
2023-04-27T09:38:09.877Z,11.32
2023-04-27T09:39:09.914Z,11.77
2023-04-27T09:40:10.868Z,11.80
2023-04-27T09:41:09.866Z,11.86
2023-04-27T09:42:09.843Z,12.22
2023-04-27T09:43:09.844Z,11.81
2023-04-27T09:44:09.890Z,11.47
2023-04-27T09:45:09.827Z,11.37
2023-04-27T09:46:09.845Z,11.11
2023-04-27T09:47:09.812Z,11.11
2023-04-27T09:48:09.792Z,11.44
2023-04-27T09:49:09.813Z,11.83
2023-04-27T09:50:09.785Z,12.06
2023-04-27T09:51:09.805Z,11.81
2023-04-27T09:52:10.518Z,12.00
2023-04-27T09:53:10.503Z,11.78
2023-04-27T09:54:09.783Z,11.50
2023-04-27T09:55:09.741Z,11.75
2023-04-27T09:56:09.756Z,11.57
2023-04-27T09:57:09.766Z,11.30
2023-04-27T09:58:09.718Z,11.47
2023-04-27T09:59:09.745Z,11.95
2023-04-27T10:00:09.714Z,12.82
2023-04-27T10:01:09.777Z,13.28
2023-04-27T10:02:23.664Z,13.92
2023-04-27T10:03:11.780Z,13.90
2023-04-27T10:04:09.858Z,13.87
2023-04-27T10:05:09.721Z,13.75
2023-04-27T10:06:09.676Z,13.65
2023-04-27T10:07:09.640Z,13.44
2023-04-27T10:08:09.687Z,13.33
2023-04-27T10:09:09.686Z,13.47
2023-04-27T10:10:09.677Z,13.70
2023-04-27T10:11:09.694Z,13.81
2023-04-27T10:12:09.623Z,13.93
2023-04-27T10:13:09.633Z,13.19
2023-04-27T10:14:09.619Z,12.87
2023-04-27T10:15:09.613Z,12.78
2023-04-27T10:16:09.619Z,12.82
2023-04-27T10:17:09.725Z,12.90
2023-04-27T10:18:09.660Z,13.16
2023-04-27T10:19:09.602Z,12.94
2023-04-27T10:20:09.586Z,12.95
2023-04-27T10:21:09.566Z,13.11
2023-04-27T10:22:09.592Z,12.78
2023-04-27T10:23:09.553Z,12.29
2023-04-27T10:24:09.568Z,12.55
2023-04-27T10:25:09.533Z,12.78
2023-04-27T10:26:09.543Z,13.37
2023-04-27T10:27:09.513Z,13.78
2023-04-27T10:28:09.555Z,14.12
2023-04-27T10:29:09.516Z,14.23
2023-04-27T10:30:09.518Z,14.25
2023-04-27T10:31:09.567Z,13.46
2023-04-27T10:32:09.521Z,12.12
2023-04-27T10:33:09.574Z,11.25
2023-04-27T10:34:09.547Z,11.44
2023-04-27T10:35:09.501Z,11.33
2023-04-27T10:36:09.478Z,11.29
2023-04-27T10:37:09.473Z,11.35
2023-04-27T10:38:09.493Z,11.43
2023-04-27T10:39:09.485Z,11.73
2023-04-27T10:40:09.455Z,12.07
2023-04-27T10:41:09.495Z,11.57
2023-04-27T10:42:09.425Z,11.54
2023-04-27T10:43:09.429Z,11.99
2023-04-27T10:44:09.424Z,12.00
2023-04-27T10:45:09.444Z,11.47
2023-04-27T10:46:09.457Z,11.27
2023-04-27T10:47:09.382Z,11.57
2023-04-27T10:48:09.441Z,12.02
2023-04-27T10:49:09.382Z,12.24
2023-04-27T10:50:09.389Z,12.07
2023-04-27T10:51:09.354Z,11.69
2023-04-27T10:52:09.373Z,12.09
2023-04-27T10:53:09.366Z,12.42
2023-04-27T10:54:09.343Z,12.09
2023-04-27T10:55:09.342Z,12.25
2023-04-27T10:56:09.314Z,12.42
2023-04-27T10:57:09.352Z,12.57
2023-04-27T10:58:09.320Z,12.86
2023-04-27T10:59:09.301Z,12.86
2023-04-27T11:00:09.316Z,12.90
2023-04-27T11:01:09.351Z,12.98
2023-04-27T11:02:09.334Z,13.25
2023-04-27T11:03:09.369Z,12.55
2023-04-27T11:04:09.330Z,12.18
2023-04-27T11:05:09.348Z,12.43
2023-04-27T11:06:09.282Z,12.62
2023-04-27T11:07:09.249Z,12.78
2023-04-27T11:08:09.320Z,12.85
2023-04-27T11:09:09.265Z,12.32
2023-04-27T11:10:09.235Z,12.37
2023-04-27T11:11:09.232Z,12.85
2023-04-27T11:12:09.216Z,12.97
2023-04-27T11:13:09.224Z,12.79
2023-04-27T11:14:09.197Z,12.82
2023-04-27T11:15:09.218Z,13.01
2023-04-27T11:16:09.244Z,13.11
2023-04-27T11:17:09.172Z,13.30
2023-04-27T11:18:09.177Z,13.62
2023-04-27T11:19:09.146Z,13.35
2023-04-27T11:20:09.252Z,13.18
2023-04-27T11:21:09.142Z,12.83
2023-04-27T11:22:09.105Z,12.49
2023-04-27T11:23:09.150Z,12.28
2023-04-27T11:24:09.140Z,12.68
2023-04-27T11:25:09.160Z,13.46
2023-04-27T11:26:09.121Z,13.86
2023-04-27T11:27:41.934Z,14.30
2023-04-27T11:28:09.035Z,14.62
2023-04-27T11:29:09.046Z,14.86
2023-04-27T11:30:09.050Z,14.77
2023-04-27T11:31:09.094Z,14.92
2023-04-27T11:32:09.115Z,15.28
2023-04-27T11:33:09.042Z,15.47
2023-04-27T11:34:08.996Z,15.67
2023-04-27T11:35:09.936Z,15.47
2023-04-27T11:36:08.969Z,14.54
2023-04-27T11:38:09.968Z,13.22
2023-04-27T11:39:09.113Z,13.27
2023-04-27T11:40:09.578Z,13.15
2023-04-27T11:41:08.991Z,13.47
2023-04-27T11:42:08.971Z,13.90
2023-04-27T11:43:08.950Z,14.28
2023-04-27T11:44:09.025Z,14.66
2023-04-27T11:45:08.929Z,15.03
2023-04-27T11:46:08.953Z,15.24
2023-04-27T11:47:09.048Z,15.33
2023-04-27T11:48:08.945Z,15.51
2023-04-27T11:49:08.988Z,15.77
2023-04-27T11:50:08.893Z,15.67
2023-04-27T11:51:08.869Z,15.70
2023-04-27T11:52:08.869Z,15.91
2023-04-27T11:53:08.856Z,15.77
2023-04-27T11:54:08.839Z,15.54
2023-04-27T11:55:08.966Z,15.47
2023-04-27T11:56:08.872Z,15.15
2023-04-27T11:57:08.826Z,14.69
2023-04-27T11:58:08.806Z,14.82
2023-04-27T11:59:08.803Z,14.63
2023-04-27T12:00:08.827Z,13.99
2023-04-27T12:01:08.792Z,13.90
2023-04-27T12:02:08.877Z,14.23
2023-04-27T12:03:09.019Z,14.41
2023-04-27T12:04:08.911Z,14.58
2023-04-27T12:05:09.054Z,14.37
2023-04-27T12:06:27.794Z,14.23
2023-04-27T12:07:10.756Z,14.25
2023-04-27T12:08:08.733Z,14.54
2023-04-27T12:09:08.724Z,14.59
2023-04-27T12:10:08.749Z,14.78
2023-04-27T12:11:08.701Z,14.91
2023-04-27T12:12:08.704Z,14.84
2023-04-27T12:13:08.695Z,14.54
2023-04-27T12:14:08.683Z,14.17
2023-04-27T12:15:08.811Z,13.89
2023-04-27T12:16:08.669Z,13.99
2023-04-27T12:17:08.727Z,14.12
2023-04-27T12:18:08.785Z,14.62
2023-04-27T12:19:08.665Z,14.79
2023-04-27T12:20:08.668Z,14.94
2023-04-27T12:21:08.750Z,15.25
2023-04-27T12:22:08.658Z,15.15
2023-04-27T12:23:08.635Z,15.15
2023-04-27T12:24:08.600Z,15.36
2023-04-27T12:25:08.650Z,15.39
2023-04-27T12:26:08.598Z,15.28
2023-04-27T12:27:08.599Z,15.21
2023-04-27T12:28:08.583Z,15.35
2023-04-27T12:29:08.578Z,15.52
2023-04-27T12:30:08.609Z,15.44
2023-04-27T12:31:08.686Z,15.31
2023-04-27T12:32:08.549Z,15.37
2023-04-27T12:33:08.546Z,15.22
2023-04-27T12:34:08.559Z,15.33
2023-04-27T12:35:08.552Z,15.68
2023-04-27T12:36:08.522Z,15.82
2023-04-27T12:37:08.529Z,15.68
2023-04-27T12:38:08.497Z,15.70
2023-04-27T12:39:08.493Z,15.55
2023-04-27T12:40:08.511Z,15.03
2023-04-27T12:41:08.486Z,14.28
2023-04-27T12:42:08.475Z,14.35
2023-04-27T12:43:08.491Z,14.51
2023-04-27T12:44:08.471Z,14.68
2023-04-27T12:45:08.485Z,14.40
2023-04-27T12:46:08.453Z,14.59
2023-04-27T12:47:08.516Z,14.45
2023-04-27T12:48:08.458Z,14.54
2023-04-27T12:49:08.462Z,14.53
2023-04-27T12:50:08.418Z,14.51
2023-04-27T12:51:08.420Z,14.45
2023-04-27T12:52:08.396Z,14.37
2023-04-27T12:53:08.377Z,14.77
2023-04-27T12:54:08.381Z,14.69
2023-04-27T12:55:15.240Z,14.26
2023-04-27T12:56:10.400Z,14.32
2023-04-27T12:57:08.362Z,14.17
2023-04-27T12:58:08.347Z,14.26
2023-04-27T12:59:08.371Z,14.51
2023-04-27T13:00:08.365Z,14.45
2023-04-27T13:01:08.331Z,14.28
2023-04-27T13:02:08.395Z,14.18
2023-04-27T13:03:08.477Z,14.25
2023-04-27T13:04:08.500Z,14.58
2023-04-27T13:05:08.400Z,14.51
2023-04-27T13:06:08.287Z,14.22
2023-04-27T13:07:08.305Z,14.48
2023-04-27T13:08:08.267Z,14.81
2023-04-27T13:09:08.265Z,14.78
2023-04-27T13:10:08.300Z,15.03